sensor_id;sensor_type;location;lat;lon;timestamp;P1;durP1;ratioP1;P2;durP2;ratioP2
43994;SDS011;51687;52.160;5.298;2024-02-14T00:00:40;7.13;;;6.63;;
43994;SDS011;51687;52.160;5.298;2024-02-14T00:03:07;8.13;;;7.53;;
43994;SDS011;51687;52.160;5.298;2024-02-14T00:05:34;8.57;;;7.88;;
43994;SDS011;51687;52.160;5.298;2024-02-14T00:08:01;7.97;;;7.22;;
43994;SDS011;51687;52.160;5.298;2024-02-14T00:10:29;7.88;;;7.38;;
43994;SDS011;51687;52.160;5.298;2024-02-14T00:12:56;8.32;;;7.75;;
43994;SDS011;51687;52.160;5.298;2024-02-14T00:15:24;7.85;;;7.25;;
43994;SDS011;51687;52.160;5.298;2024-02-14T00:17:51;8.35;;;7.85;;
43994;SDS011;51687;52.160;5.298;2024-02-14T00:20:19;8.68;;;8.07;;
43994;SDS011;51687;52.160;5.298;2024-02-14T00:22:46;8.00;;;7.50;;
43994;SDS011;51687;52.160;5.298;2024-02-14T00:25:13;8.52;;;8.02;;
43994;SDS011;51687;52.160;5.298;2024-02-14T00:27:44;9.10;;;8.50;;
43994;SDS011;51687;52.160;5.298;2024-02-14T00:30:13;9.43;;;8.82;;
43994;SDS011;51687;52.160;5.298;2024-02-14T00:32:40;10.40;;;9.70;;
43994;SDS011;51687;52.160;5.298;2024-02-14T00:35:07;11.02;;;10.18;;
43994;SDS011;51687;52.160;5.298;2024-02-14T00:37:34;11.52;;;10.73;;
43994;SDS011;51687;52.160;5.298;2024-02-14T00:40:01;11.57;;;10.68;;
43994;SDS011;51687;52.160;5.298;2024-02-14T00:42:28;12.00;;;11.20;;
43994;SDS011;51687;52.160;5.298;2024-02-14T00:44:55;11.50;;;10.73;;
43994;SDS011;51687;52.160;5.298;2024-02-14T00:47:22;13.13;;;11.90;;
43994;SDS011;51687;52.160;5.298;2024-02-14T00:49:49;13.27;;;12.02;;
43994;SDS011;51687;52.160;5.298;2024-02-14T00:52:15;13.52;;;12.63;;
43994;SDS011;51687;52.160;5.298;2024-02-14T00:54:43;12.98;;;11.85;;
43994;SDS011;51687;52.160;5.298;2024-02-14T00:57:11;13.93;;;13.02;;
43994;SDS011;51687;52.160;5.298;2024-02-14T01:02:05;13.20;;;12.32;;
43994;SDS011;51687;52.160;5.298;2024-02-14T01:04:32;18.10;;;16.35;;
43994;SDS011;51687;52.160;5.298;2024-02-14T01:07:00;19.67;;;18.15;;
43994;SDS011;51687;52.160;5.298;2024-02-14T01:09:27;19.57;;;18.27;;
43994;SDS011;51687;52.160;5.298;2024-02-14T01:11:53;19.48;;;18.17;;
43994;SDS011;51687;52.160;5.298;2024-02-14T01:14:20;20.95;;;19.20;;
43994;SDS011;51687;52.160;5.298;2024-02-14T01:16:48;21.70;;;20.00;;
43994;SDS011;51687;52.160;5.298;2024-02-14T01:19:16;20.00;;;18.67;;
43994;SDS011;51687;52.160;5.298;2024-02-14T01:21:45;22.95;;;21.30;;
43994;SDS011;51687;52.160;5.298;2024-02-14T01:24:15;21.15;;;19.75;;
43994;SDS011;51687;52.160;5.298;2024-02-14T01:26:42;21.55;;;19.92;;
43994;SDS011;51687;52.160;5.298;2024-02-14T01:29:09;23.33;;;21.90;;
43994;SDS011;51687;52.160;5.298;2024-02-14T01:31:36;21.45;;;19.52;;
43994;SDS011;51687;52.160;5.298;2024-02-14T01:34:03;23.60;;;21.73;;
43994;SDS011;51687;52.160;5.298;2024-02-14T01:36:30;20.77;;;19.48;;
43994;SDS011;51687;52.160;5.298;2024-02-14T01:39:00;22.38;;;20.65;;
43994;SDS011;51687;52.160;5.298;2024-02-14T01:41:27;23.33;;;21.73;;
43994;SDS011;51687;52.160;5.298;2024-02-14T01:43:55;23.95;;;21.98;;
43994;SDS011;51687;52.160;5.298;2024-02-14T01:46:25;25.08;;;23.35;;
43994;SDS011;51687;52.160;5.298;2024-02-14T01:48:52;22.42;;;20.80;;
43994;SDS011;51687;52.160;5.298;2024-02-14T01:51:22;24.58;;;22.55;;
43994;SDS011;51687;52.160;5.298;2024-02-14T01:53:51;22.92;;;21.02;;
43994;SDS011;51687;52.160;5.298;2024-02-14T01:56:19;23.80;;;22.08;;
43994;SDS011;51687;52.160;5.298;2024-02-14T01:58:46;28.67;;;26.55;;
43994;SDS011;51687;52.160;5.298;2024-02-14T02:01:13;25.25;;;23.10;;
43994;SDS011;51687;52.160;5.298;2024-02-14T02:03:43;26.38;;;24.08;;
43994;SDS011;51687;52.160;5.298;2024-02-14T02:06:10;26.52;;;24.50;;
43994;SDS011;51687;52.160;5.298;2024-02-14T02:08:37;28.85;;;26.63;;
43994;SDS011;51687;52.160;5.298;2024-02-14T02:11:03;26.10;;;24.23;;
43994;SDS011;51687;52.160;5.298;2024-02-14T02:13:32;24.75;;;22.85;;
43994;SDS011;51687;52.160;5.298;2024-02-14T02:15:59;28.17;;;25.67;;
43994;SDS011;51687;52.160;5.298;2024-02-14T02:18:31;24.10;;;22.10;;
43994;SDS011;51687;52.160;5.298;2024-02-14T02:20:58;24.75;;;23.05;;
43994;SDS011;51687;52.160;5.298;2024-02-14T02:23:25;24.63;;;22.77;;
43994;SDS011;51687;52.160;5.298;2024-02-14T02:25:52;24.35;;;21.98;;
43994;SDS011;51687;52.160;5.298;2024-02-14T02:28:19;23.55;;;21.73;;
43994;SDS011;51687;52.160;5.298;2024-02-14T02:30:46;24.63;;;22.73;;
43994;SDS011;51687;52.160;5.298;2024-02-14T02:33:13;25.33;;;23.63;;
43994;SDS011;51687;52.160;5.298;2024-02-14T02:35:41;24.67;;;22.58;;
43994;SDS011;51687;52.160;5.298;2024-02-14T02:38:08;24.92;;;23.15;;
43994;SDS011;51687;52.160;5.298;2024-02-14T02:40:35;26.65;;;24.67;;
43994;SDS011;51687;52.160;5.298;2024-02-14T02:43:03;25.25;;;23.20;;
43994;SDS011;51687;52.160;5.298;2024-02-14T02:45:30;23.50;;;21.73;;
43994;SDS011;51687;52.160;5.298;2024-02-14T02:47:56;21.92;;;20.42;;
43994;SDS011;51687;52.160;5.298;2024-02-14T02:50:23;22.77;;;21.00;;
43994;SDS011;51687;52.160;5.298;2024-02-14T02:52:52;22.52;;;20.40;;
43994;SDS011;51687;52.160;5.298;2024-02-14T02:55:18;22.50;;;20.80;;
43994;SDS011;51687;52.160;5.298;2024-02-14T02:57:45;22.70;;;21.08;;
43994;SDS011;51687;52.160;5.298;2024-02-14T03:00:12;22.30;;;20.67;;
43994;SDS011;51687;52.160;5.298;2024-02-14T03:02:40;20.67;;;19.27;;
43994;SDS011;51687;52.160;5.298;2024-02-14T03:05:12;21.35;;;19.75;;
43994;SDS011;51687;52.160;5.298;2024-02-14T03:07:46;20.75;;;19.13;;
43994;SDS011;51687;52.160;5.298;2024-02-14T03:10:15;20.70;;;19.40;;
43994;SDS011;51687;52.160;5.298;2024-02-14T03:12:46;19.48;;;18.08;;
43994;SDS011;51687;52.160;5.298;2024-02-14T03:15:16;19.08;;;17.80;;
43994;SDS011;51687;52.160;5.298;2024-02-14T03:17:43;20.45;;;18.85;;
43994;SDS011;51687;52.160;5.298;2024-02-14T03:20:11;21.30;;;19.57;;
43994;SDS011;51687;52.160;5.298;2024-02-14T03:22:44;21.75;;;20.25;;
43994;SDS011;51687;52.160;5.298;2024-02-14T03:25:12;23.55;;;21.88;;
43994;SDS011;51687;52.160;5.298;2024-02-14T03:27:42;24.00;;;22.20;;
43994;SDS011;51687;52.160;5.298;2024-02-14T03:30:13;26.45;;;23.95;;
43994;SDS011;51687;52.160;5.298;2024-02-14T03:32:44;28.17;;;25.52;;
43994;SDS011;51687;52.160;5.298;2024-02-14T03:35:14;29.00;;;26.15;;
43994;SDS011;51687;52.160;5.298;2024-02-14T03:37:42;28.17;;;25.38;;
43994;SDS011;51687;52.160;5.298;2024-02-14T03:42:38;28.98;;;24.70;;
43994;SDS011;51687;52.160;5.298;2024-02-14T03:45:07;25.40;;;23.10;;
43994;SDS011;51687;52.160;5.298;2024-02-14T03:47:35;27.88;;;25.10;;
43994;SDS011;51687;52.160;5.298;2024-02-14T03:50:06;27.42;;;24.83;;
43994;SDS011;51687;52.160;5.298;2024-02-14T03:52:34;31.77;;;25.50;;
43994;SDS011;51687;52.160;5.298;2024-02-14T03:55:01;30.38;;;26.00;;
43994;SDS011;51687;52.160;5.298;2024-02-14T03:57:28;29.75;;;25.48;;
43994;SDS011;51687;52.160;5.298;2024-02-14T03:59:59;31.77;;;25.00;;
43994;SDS011;51687;52.160;5.298;2024-02-14T04:02:30;29.15;;;26.00;;
43994;SDS011;51687;52.160;5.298;2024-02-14T04:04:58;33.95;;;28.80;;
43994;SDS011;51687;52.160;5.298;2024-02-14T04:07:25;41.38;;;29.13;;
43994;SDS011;51687;52.160;5.298;2024-02-14T04:09:53;35.70;;;27.77;;
43994;SDS011;51687;52.160;5.298;2024-02-14T04:12:20;33.72;;;30.13;;
43994;SDS011;51687;52.160;5.298;2024-02-14T04:14:47;43.92;;;29.88;;
43994;SDS011;51687;52.160;5.298;2024-02-14T04:17:14;47.00;;;30.17;;
43994;SDS011;51687;52.160;5.298;2024-02-14T04:19:41;45.00;;;31.75;;
43994;SDS011;51687;52.160;5.298;2024-02-14T04:22:08;47.70;;;29.75;;
43994;SDS011;51687;52.160;5.298;2024-02-14T04:24:35;46.22;;;30.27;;
43994;SDS011;51687;52.160;5.298;2024-02-14T04:27:02;48.55;;;31.70;;
43994;SDS011;51687;52.160;5.298;2024-02-14T04:29:31;49.95;;;31.15;;
43994;SDS011;51687;52.160;5.298;2024-02-14T04:32:00;44.28;;;30.20;;
43994;SDS011;51687;52.160;5.298;2024-02-14T04:34:28;51.08;;;29.35;;
43994;SDS011;51687;52.160;5.298;2024-02-14T04:36:56;60.00;;;29.48;;
43994;SDS011;51687;52.160;5.298;2024-02-14T04:39:24;40.05;;;31.00;;
43994;SDS011;51687;52.160;5.298;2024-02-14T04:41:51;55.28;;;31.98;;
43994;SDS011;51687;52.160;5.298;2024-02-14T04:44:27;42.97;;;28.70;;
43994;SDS011;51687;52.160;5.298;2024-02-14T04:46:55;49.10;;;28.97;;
43994;SDS011;51687;52.160;5.298;2024-02-14T04:49:25;51.42;;;30.52;;
43994;SDS011;51687;52.160;5.298;2024-02-14T04:51:52;40.90;;;27.75;;
43994;SDS011;51687;52.160;5.298;2024-02-14T04:54:20;43.88;;;27.17;;
43994;SDS011;51687;52.160;5.298;2024-02-14T04:56:47;47.17;;;29.25;;
43994;SDS011;51687;52.160;5.298;2024-02-14T04:59:20;47.67;;;28.13;;
43994;SDS011;51687;52.160;5.298;2024-02-14T05:01:47;54.53;;;30.63;;
43994;SDS011;51687;52.160;5.298;2024-02-14T05:04:15;48.60;;;29.02;;
43994;SDS011;51687;52.160;5.298;2024-02-14T05:09:10;49.78;;;28.48;;
43994;SDS011;51687;52.160;5.298;2024-02-14T05:11:37;48.35;;;28.58;;
43994;SDS011;51687;52.160;5.298;2024-02-14T05:14:04;44.35;;;27.00;;
43994;SDS011;51687;52.160;5.298;2024-02-14T05:16:31;45.00;;;29.00;;
43994;SDS011;51687;52.160;5.298;2024-02-14T05:18:58;42.03;;;26.20;;
43994;SDS011;51687;52.160;5.298;2024-02-14T05:21:27;47.45;;;28.50;;
43994;SDS011;51687;52.160;5.298;2024-02-14T05:23:55;42.95;;;26.98;;
43994;SDS011;51687;52.160;5.298;2024-02-14T05:26:22;44.13;;;28.20;;
43994;SDS011;51687;52.160;5.298;2024-02-14T05:28:48;46.45;;;26.88;;
43994;SDS011;51687;52.160;5.298;2024-02-14T05:31:16;48.42;;;28.05;;
43994;SDS011;51687;52.160;5.298;2024-02-14T05:33:43;41.92;;;24.70;;
43994;SDS011;51687;52.160;5.298;2024-02-14T05:36:10;44.28;;;27.15;;
43994;SDS011;51687;52.160;5.298;2024-02-14T05:38:37;39.35;;;26.30;;
43994;SDS011;51687;52.160;5.298;2024-02-14T05:41:04;33.25;;;25.88;;
43994;SDS011;51687;52.160;5.298;2024-02-14T05:43:33;35.78;;;25.95;;
43994;SDS011;51687;52.160;5.298;2024-02-14T05:46:00;28.15;;;24.42;;
43994;SDS011;51687;52.160;5.298;2024-02-14T05:48:27;30.00;;;23.08;;
43994;SDS011;51687;52.160;5.298;2024-02-14T05:50:54;30.13;;;24.85;;
43994;SDS011;51687;52.160;5.298;2024-02-14T05:53:22;24.73;;;22.20;;
43994;SDS011;51687;52.160;5.298;2024-02-14T05:55:49;33.22;;;23.58;;
43994;SDS011;51687;52.160;5.298;2024-02-14T05:58:16;25.45;;;22.77;;
43994;SDS011;51687;52.160;5.298;2024-02-14T06:00:43;25.10;;;22.42;;
43994;SDS011;51687;52.160;5.298;2024-02-14T06:03:10;23.45;;;21.30;;
43994;SDS011;51687;52.160;5.298;2024-02-14T06:05:37;23.05;;;20.67;;
43994;SDS011;51687;52.160;5.298;2024-02-14T06:08:04;20.85;;;19.25;;
43994;SDS011;51687;52.160;5.298;2024-02-14T06:10:31;25.50;;;23.20;;
43994;SDS011;51687;52.160;5.298;2024-02-14T06:13:00;27.08;;;23.75;;
43994;SDS011;51687;52.160;5.298;2024-02-14T06:15:27;26.65;;;21.90;;
43994;SDS011;51687;52.160;5.298;2024-02-14T06:17:54;25.65;;;22.63;;
43994;SDS011;51687;52.160;5.298;2024-02-14T06:20:21;26.08;;;23.70;;
43994;SDS011;51687;52.160;5.298;2024-02-14T06:22:48;24.23;;;22.02;;
43994;SDS011;51687;52.160;5.298;2024-02-14T06:25:29;27.00;;;24.38;;
43994;SDS011;51687;52.160;5.298;2024-02-14T06:27:56;26.13;;;22.13;;
43994;SDS011;51687;52.160;5.298;2024-02-14T06:30:23;21.27;;;19.55;;
43994;SDS011;51687;52.160;5.298;2024-02-14T06:32:52;26.15;;;21.35;;
43994;SDS011;51687;52.160;5.298;2024-02-14T06:35:19;21.10;;;19.10;;
43994;SDS011;51687;52.160;5.298;2024-02-14T06:37:47;20.48;;;18.55;;
43994;SDS011;51687;52.160;5.298;2024-02-14T06:40:27;21.98;;;18.92;;
43994;SDS011;51687;52.160;5.298;2024-02-14T06:42:55;21.17;;;19.20;;
43994;SDS011;51687;52.160;5.298;2024-02-14T06:45:24;20.13;;;18.08;;
43994;SDS011;51687;52.160;5.298;2024-02-14T06:47:52;24.42;;;19.73;;
43994;SDS011;51687;52.160;5.298;2024-02-14T06:50:18;24.27;;;21.77;;
43994;SDS011;51687;52.160;5.298;2024-02-14T06:52:45;27.20;;;24.88;;
43994;SDS011;51687;52.160;5.298;2024-02-14T06:55:12;28.15;;;25.25;;
43994;SDS011;51687;52.160;5.298;2024-02-14T06:57:39;29.00;;;26.17;;
43994;SDS011;51687;52.160;5.298;2024-02-14T07:00:07;32.03;;;27.30;;
43994;SDS011;51687;52.160;5.298;2024-02-14T07:02:35;32.45;;;24.92;;
43994;SDS011;51687;52.160;5.298;2024-02-14T07:05:02;46.85;;;29.35;;
43994;SDS011;51687;52.160;5.298;2024-02-14T07:07:30;39.60;;;28.85;;
43994;SDS011;51687;52.160;5.298;2024-02-14T07:09:57;38.50;;;29.55;;
43994;SDS011;51687;52.160;5.298;2024-02-14T07:12:24;44.22;;;31.75;;
43994;SDS011;51687;52.160;5.298;2024-02-14T07:14:53;39.40;;;28.02;;
43994;SDS011;51687;52.160;5.298;2024-02-14T07:17:20;37.60;;;29.13;;
43994;SDS011;51687;52.160;5.298;2024-02-14T07:19:47;50.03;;;32.30;;
43994;SDS011;51687;52.160;5.298;2024-02-14T07:22:16;37.60;;;27.30;;
43994;SDS011;51687;52.160;5.298;2024-02-14T07:24:45;41.10;;;33.22;;
43994;SDS011;51687;52.160;5.298;2024-02-14T07:27:13;42.15;;;31.90;;
43994;SDS011;51687;52.160;5.298;2024-02-14T07:29:41;42.83;;;31.08;;
43994;SDS011;51687;52.160;5.298;2024-02-14T07:32:08;37.80;;;31.50;;
43994;SDS011;51687;52.160;5.298;2024-02-14T07:34:38;41.42;;;31.65;;
43994;SDS011;51687;52.160;5.298;2024-02-14T07:37:10;32.38;;;28.45;;
43994;SDS011;51687;52.160;5.298;2024-02-14T07:39:37;35.90;;;31.17;;
43994;SDS011;51687;52.160;5.298;2024-02-14T07:42:04;41.80;;;31.20;;
43994;SDS011;51687;52.160;5.298;2024-02-14T07:44:31;34.60;;;30.53;;
43994;SDS011;51687;52.160;5.298;2024-02-14T07:46:59;37.35;;;27.60;;
43994;SDS011;51687;52.160;5.298;2024-02-14T07:49:30;39.05;;;29.63;;
43994;SDS011;51687;52.160;5.298;2024-02-14T07:51:57;40.67;;;30.58;;
43994;SDS011;51687;52.160;5.298;2024-02-14T07:54:24;53.08;;;32.65;;
43994;SDS011;51687;52.160;5.298;2024-02-14T07:56:51;36.72;;;31.85;;
43994;SDS011;51687;52.160;5.298;2024-02-14T07:59:18;36.75;;;30.63;;
43994;SDS011;51687;52.160;5.298;2024-02-14T08:01:46;38.28;;;30.00;;
43994;SDS011;51687;52.160;5.298;2024-02-14T08:04:14;42.38;;;32.55;;
43994;SDS011;51687;52.160;5.298;2024-02-14T08:06:44;34.63;;;30.85;;
43994;SDS011;51687;52.160;5.298;2024-02-14T08:09:12;35.65;;;31.63;;
43994;SDS011;51687;52.160;5.298;2024-02-14T08:11:39;40.92;;;33.00;;
43994;SDS011;51687;52.160;5.298;2024-02-14T08:14:06;36.90;;;32.05;;
43994;SDS011;51687;52.160;5.298;2024-02-14T08:16:33;36.50;;;31.23;;
43994;SDS011;51687;52.160;5.298;2024-02-14T08:19:01;42.15;;;33.97;;
43994;SDS011;51687;52.160;5.298;2024-02-14T08:21:29;41.50;;;32.63;;
43994;SDS011;51687;52.160;5.298;2024-02-14T08:26:27;42.35;;;33.90;;
43994;SDS011;51687;52.160;5.298;2024-02-14T08:28:54;36.42;;;32.25;;
43994;SDS011;51687;52.160;5.298;2024-02-14T08:31:21;37.03;;;33.20;;
43994;SDS011;51687;52.160;5.298;2024-02-14T08:33:48;39.00;;;34.85;;
43994;SDS011;51687;52.160;5.298;2024-02-14T08:36:15;37.05;;;32.95;;
43994;SDS011;51687;52.160;5.298;2024-02-14T08:38:45;38.55;;;33.58;;
43994;SDS011;51687;52.160;5.298;2024-02-14T08:41:12;36.08;;;32.15;;
43994;SDS011;51687;52.160;5.298;2024-02-14T08:43:38;39.38;;;31.40;;
43994;SDS011;51687;52.160;5.298;2024-02-14T08:46:10;35.28;;;31.15;;
43994;SDS011;51687;52.160;5.298;2024-02-14T08:48:38;32.47;;;29.05;;
43994;SDS011;51687;52.160;5.298;2024-02-14T08:51:13;31.45;;;28.25;;
43994;SDS011;51687;52.160;5.298;2024-02-14T08:53:40;30.58;;;27.42;;
43994;SDS011;51687;52.160;5.298;2024-02-14T08:56:12;36.65;;;28.55;;
43994;SDS011;51687;52.160;5.298;2024-02-14T08:58:39;28.65;;;25.00;;
43994;SDS011;51687;52.160;5.298;2024-02-14T09:01:06;28.23;;;25.52;;
43994;SDS011;51687;52.160;5.298;2024-02-14T09:03:41;29.38;;;26.48;;
43994;SDS011;51687;52.160;5.298;2024-02-14T09:06:14;28.33;;;25.45;;
43994;SDS011;51687;52.160;5.298;2024-02-14T09:08:43;28.02;;;25.33;;
43994;SDS011;51687;52.160;5.298;2024-02-14T09:11:10;29.58;;;26.60;;
43994;SDS011;51687;52.160;5.298;2024-02-14T09:13:38;30.63;;;27.60;;
43994;SDS011;51687;52.160;5.298;2024-02-14T09:16:09;32.45;;;29.33;;
43994;SDS011;51687;52.160;5.298;2024-02-14T09:18:37;32.92;;;28.50;;
43994;SDS011;51687;52.160;5.298;2024-02-14T09:21:05;30.77;;;27.90;;
43994;SDS011;51687;52.160;5.298;2024-02-14T09:23:32;30.92;;;27.70;;
43994;SDS011;51687;52.160;5.298;2024-02-14T09:26:00;28.92;;;26.08;;
43994;SDS011;51687;52.160;5.298;2024-02-14T09:28:28;30.10;;;27.17;;
43994;SDS011;51687;52.160;5.298;2024-02-14T09:30:54;31.90;;;28.73;;
43994;SDS011;51687;52.160;5.298;2024-02-14T09:33:21;29.80;;;26.75;;
43994;SDS011;51687;52.160;5.298;2024-02-14T09:35:48;28.00;;;25.40;;
43994;SDS011;51687;52.160;5.298;2024-02-14T09:38:18;27.80;;;25.23;;
43994;SDS011;51687;52.160;5.298;2024-02-14T09:40:45;27.73;;;25.40;;
43994;SDS011;51687;52.160;5.298;2024-02-14T09:45:49;25.10;;;22.60;;
43994;SDS011;51687;52.160;5.298;2024-02-14T09:48:18;26.50;;;23.83;;
43994;SDS011;51687;52.160;5.298;2024-02-14T09:50:48;26.00;;;23.73;;
43994;SDS011;51687;52.160;5.298;2024-02-14T09:55:43;32.70;;;26.10;;
43994;SDS011;51687;52.160;5.298;2024-02-14T09:58:12;30.38;;;27.35;;
43994;SDS011;51687;52.160;5.298;2024-02-14T10:00:39;32.42;;;28.65;;
43994;SDS011;51687;52.160;5.298;2024-02-14T10:03:08;34.10;;;30.55;;
43994;SDS011;51687;52.160;5.298;2024-02-14T10:05:35;35.75;;;30.90;;
43994;SDS011;51687;52.160;5.298;2024-02-14T10:08:02;34.47;;;31.23;;
43994;SDS011;51687;52.160;5.298;2024-02-14T10:10:31;36.50;;;32.53;;
43994;SDS011;51687;52.160;5.298;2024-02-14T10:13:03;39.13;;;32.97;;
43994;SDS011;51687;52.160;5.298;2024-02-14T10:15:31;40.47;;;32.05;;
43994;SDS011;51687;52.160;5.298;2024-02-14T10:17:59;36.42;;;31.95;;
43994;SDS011;51687;52.160;5.298;2024-02-14T10:20:27;39.67;;;28.65;;
43994;SDS011;51687;52.160;5.298;2024-02-14T10:23:05;41.72;;;32.58;;
43994;SDS011;51687;52.160;5.298;2024-02-14T10:25:34;34.67;;;30.63;;
43994;SDS011;51687;52.160;5.298;2024-02-14T10:28:07;42.22;;;31.40;;
43994;SDS011;51687;52.160;5.298;2024-02-14T10:30:36;33.33;;;29.98;;
43994;SDS011;51687;52.160;5.298;2024-02-14T10:33:07;31.42;;;28.63;;
43994;SDS011;51687;52.160;5.298;2024-02-14T10:35:49;30.10;;;27.67;;
43994;SDS011;51687;52.160;5.298;2024-02-14T10:38:18;31.73;;;28.25;;
43994;SDS011;51687;52.160;5.298;2024-02-14T10:40:47;30.08;;;26.98;;
43994;SDS011;51687;52.160;5.298;2024-02-14T10:43:15;29.67;;;27.02;;
43994;SDS011;51687;52.160;5.298;2024-02-14T10:45:42;30.13;;;27.38;;
43994;SDS011;51687;52.160;5.298;2024-02-14T10:48:11;28.08;;;25.35;;
43994;SDS011;51687;52.160;5.298;2024-02-14T10:50:41;28.75;;;26.20;;
43994;SDS011;51687;52.160;5.298;2024-02-14T10:53:12;26.75;;;23.92;;
43994;SDS011;51687;52.160;5.298;2024-02-14T10:55:45;27.65;;;25.42;;
43994;SDS011;51687;52.160;5.298;2024-02-14T10:58:14;26.10;;;23.73;;
43994;SDS011;51687;52.160;5.298;2024-02-14T11:03:10;27.05;;;23.85;;
43994;SDS011;51687;52.160;5.298;2024-02-14T11:05:44;26.67;;;24.25;;
43994;SDS011;51687;52.160;5.298;2024-02-14T11:08:18;24.77;;;22.50;;
43994;SDS011;51687;52.160;5.298;2024-02-14T11:10:53;25.88;;;23.45;;
43994;SDS011;51687;52.160;5.298;2024-02-14T11:13:25;23.70;;;21.70;;
43994;SDS011;51687;52.160;5.298;2024-02-14T11:16:02;23.13;;;21.30;;
43994;SDS011;51687;52.160;5.298;2024-02-14T11:18:34;23.40;;;21.40;;
43994;SDS011;51687;52.160;5.298;2024-02-14T11:21:03;23.35;;;21.20;;
43994;SDS011;51687;52.160;5.298;2024-02-14T11:23:31;20.35;;;18.75;;
43994;SDS011;51687;52.160;5.298;2024-02-14T11:26:05;21.55;;;19.90;;
43994;SDS011;51687;52.160;5.298;2024-02-14T11:28:36;20.42;;;18.55;;
43994;SDS011;51687;52.160;5.298;2024-02-14T11:31:07;19.90;;;18.30;;
43994;SDS011;51687;52.160;5.298;2024-02-14T11:33:35;19.50;;;17.52;;
43994;SDS011;51687;52.160;5.298;2024-02-14T11:36:09;19.48;;;18.10;;
43994;SDS011;51687;52.160;5.298;2024-02-14T11:38:37;20.55;;;19.02;;
43994;SDS011;51687;52.160;5.298;2024-02-14T11:41:07;20.77;;;18.73;;
43994;SDS011;51687;52.160;5.298;2024-02-14T11:43:35;19.63;;;17.98;;
43994;SDS011;51687;52.160;5.298;2024-02-14T11:46:02;19.27;;;17.67;;
43994;SDS011;51687;52.160;5.298;2024-02-14T11:48:31;19.60;;;17.90;;
43994;SDS011;51687;52.160;5.298;2024-02-14T11:50:59;20.08;;;18.38;;
43994;SDS011;51687;52.160;5.298;2024-02-14T11:53:26;19.90;;;17.70;;
43994;SDS011;51687;52.160;5.298;2024-02-14T11:55:55;19.77;;;18.30;;
43994;SDS011;51687;52.160;5.298;2024-02-14T11:58:22;17.70;;;16.40;;
43994;SDS011;51687;52.160;5.298;2024-02-14T12:00:49;19.60;;;17.65;;
43994;SDS011;51687;52.160;5.298;2024-02-14T12:03:17;19.63;;;17.83;;
43994;SDS011;51687;52.160;5.298;2024-02-14T12:05:47;22.42;;;19.05;;
43994;SDS011;51687;52.160;5.298;2024-02-14T12:08:15;19.98;;;18.38;;
43994;SDS011;51687;52.160;5.298;2024-02-14T12:10:42;19.70;;;18.27;;
43994;SDS011;51687;52.160;5.298;2024-02-14T12:13:13;19.63;;;18.05;;
43994;SDS011;51687;52.160;5.298;2024-02-14T12:15:45;19.42;;;18.02;;
43994;SDS011;51687;52.160;5.298;2024-02-14T12:18:13;21.63;;;19.73;;
43994;SDS011;51687;52.160;5.298;2024-02-14T12:20:41;19.35;;;18.05;;
43994;SDS011;51687;52.160;5.298;2024-02-14T12:23:13;20.02;;;18.38;;
43994;SDS011;51687;52.160;5.298;2024-02-14T12:25:47;21.23;;;19.35;;
43994;SDS011;51687;52.160;5.298;2024-02-14T12:28:18;20.85;;;19.35;;
43994;SDS011;51687;52.160;5.298;2024-02-14T12:30:46;18.63;;;17.23;;
43994;SDS011;51687;52.160;5.298;2024-02-14T12:33:22;17.15;;;15.73;;
43994;SDS011;51687;52.160;5.298;2024-02-14T12:35:54;15.27;;;14.10;;
43994;SDS011;51687;52.160;5.298;2024-02-14T12:38:22;15.70;;;14.63;;
43994;SDS011;51687;52.160;5.298;2024-02-14T12:40:50;14.98;;;13.68;;
43994;SDS011;51687;52.160;5.298;2024-02-14T12:43:19;16.25;;;15.07;;
43994;SDS011;51687;52.160;5.298;2024-02-14T12:45:47;13.75;;;12.60;;
43994;SDS011;51687;52.160;5.298;2024-02-14T12:48:22;14.40;;;13.50;;
43994;SDS011;51687;52.160;5.298;2024-02-14T12:50:53;13.60;;;12.70;;
43994;SDS011;51687;52.160;5.298;2024-02-14T12:53:21;13.13;;;12.33;;
43994;SDS011;51687;52.160;5.298;2024-02-14T12:55:48;12.45;;;11.65;;
43994;SDS011;51687;52.160;5.298;2024-02-14T12:58:15;12.50;;;11.70;;
43994;SDS011;51687;52.160;5.298;2024-02-14T13:00:42;12.98;;;12.18;;
43994;SDS011;51687;52.160;5.298;2024-02-14T13:05:43;10.40;;;9.60;;
43994;SDS011;51687;52.160;5.298;2024-02-14T13:08:11;10.65;;;9.95;;
43994;SDS011;51687;52.160;5.298;2024-02-14T13:10:38;11.80;;;11.00;;
43994;SDS011;51687;52.160;5.298;2024-02-14T13:13:05;14.35;;;13.32;;
43994;SDS011;51687;52.160;5.298;2024-02-14T13:15:32;14.07;;;13.07;;
43994;SDS011;51687;52.160;5.298;2024-02-14T13:17:59;14.10;;;13.02;;
43994;SDS011;51687;52.160;5.298;2024-02-14T13:20:27;15.45;;;14.35;;
43994;SDS011;51687;52.160;5.298;2024-02-14T13:22:54;15.75;;;14.80;;
43994;SDS011;51687;52.160;5.298;2024-02-14T13:25:21;15.98;;;14.88;;
43994;SDS011;51687;52.160;5.298;2024-02-14T13:27:48;16.67;;;15.52;;
43994;SDS011;51687;52.160;5.298;2024-02-14T13:30:17;15.77;;;14.88;;
43994;SDS011;51687;52.160;5.298;2024-02-14T13:32:45;16.77;;;15.68;;
43994;SDS011;51687;52.160;5.298;2024-02-14T13:35:12;16.60;;;15.27;;
43994;SDS011;51687;52.160;5.298;2024-02-14T13:37:40;15.00;;;14.00;;
43994;SDS011;51687;52.160;5.298;2024-02-14T13:40:07;15.35;;;14.35;;
43994;SDS011;51687;52.160;5.298;2024-02-14T13:42:36;16.15;;;15.00;;
43994;SDS011;51687;52.160;5.298;2024-02-14T13:45:07;16.40;;;15.20;;
43994;SDS011;51687;52.160;5.298;2024-02-14T13:47:38;15.82;;;14.73;;
43994;SDS011;51687;52.160;5.298;2024-02-14T13:50:12;15.48;;;14.48;;
43994;SDS011;51687;52.160;5.298;2024-02-14T13:52:39;14.35;;;13.20;;
43994;SDS011;51687;52.160;5.298;2024-02-14T13:55:07;14.95;;;13.85;;
43994;SDS011;51687;52.160;5.298;2024-02-14T13:57:36;13.77;;;12.88;;
43994;SDS011;51687;52.160;5.298;2024-02-14T14:00:07;13.13;;;12.25;;
43994;SDS011;51687;52.160;5.298;2024-02-14T14:02:38;12.20;;;11.40;;
43994;SDS011;51687;52.160;5.298;2024-02-14T14:05:09;11.65;;;10.85;;
43994;SDS011;51687;52.160;5.298;2024-02-14T14:07:40;12.25;;;11.45;;
43994;SDS011;51687;52.160;5.298;2024-02-14T14:10:23;11.85;;;11.00;;
43994;SDS011;51687;52.160;5.298;2024-02-14T14:12:51;13.02;;;11.85;;
43994;SDS011;51687;52.160;5.298;2024-02-14T14:15:18;12.20;;;11.20;;
43994;SDS011;51687;52.160;5.298;2024-02-14T14:17:45;12.68;;;11.80;;
43994;SDS011;51687;52.160;5.298;2024-02-14T14:20:13;12.55;;;11.63;;
43994;SDS011;51687;52.160;5.298;2024-02-14T14:22:40;12.95;;;11.85;;
43994;SDS011;51687;52.160;5.298;2024-02-14T14:25:08;13.02;;;12.13;;
43994;SDS011;51687;52.160;5.298;2024-02-14T14:27:35;14.82;;;13.82;;
43994;SDS011;51687;52.160;5.298;2024-02-14T14:30:02;13.50;;;12.32;;
43994;SDS011;51687;52.160;5.298;2024-02-14T14:32:30;13.20;;;12.30;;
43994;SDS011;51687;52.160;5.298;2024-02-14T14:34:57;12.90;;;12.10;;
43994;SDS011;51687;52.160;5.298;2024-02-14T14:37:24;13.15;;;12.07;;
43994;SDS011;51687;52.160;5.298;2024-02-14T14:39:51;13.70;;;12.80;;
43994;SDS011;51687;52.160;5.298;2024-02-14T14:42:19;13.02;;;12.13;;
43994;SDS011;51687;52.160;5.298;2024-02-14T14:44:46;12.77;;;11.87;;
43994;SDS011;51687;52.160;5.298;2024-02-14T14:47:12;13.05;;;12.00;;
43994;SDS011;51687;52.160;5.298;2024-02-14T14:49:39;13.70;;;12.70;;